createdAt,value
2023-04-02T00:01:21.740Z,99127.72
2023-04-02T00:04:14.803Z,99127.97
2023-04-02T00:06:46.958Z,99139.38
2023-04-02T00:09:30.528Z,99140.41
2023-04-02T00:12:00.460Z,99136.97
2023-04-02T00:14:33.878Z,99155.50
2023-04-02T00:17:06.336Z,99147.03
2023-04-02T00:19:39.857Z,99150.47
2023-04-02T00:22:15.303Z,99148.84
2023-04-02T00:24:43.855Z,99148.06
2023-04-02T00:27:17.410Z,99158.41
2023-04-02T00:29:52.983Z,99155.22
2023-04-02T00:32:26.541Z,99157.84
2023-04-02T00:34:55.738Z,99164.44
2023-04-02T00:37:28.063Z,99166.88
2023-04-02T00:40:04.299Z,99159.97
2023-04-02T00:42:32.815Z,99166.28
2023-04-02T00:45:03.101Z,99167.91
2023-04-02T00:47:36.660Z,99159.97
2023-04-02T00:50:20.185Z,99163.66
2023-04-02T00:52:52.606Z,99169.22
2023-04-02T00:55:26.947Z,99162.31
2023-04-02T00:58:01.186Z,99163.34
2023-04-02T01:00:34.683Z,99162.56
2023-04-02T01:03:35.284Z,99172.06
2023-04-02T01:06:11.260Z,99168.03
2023-04-02T01:08:55.760Z,99163.25
2023-04-02T01:11:49.348Z,99173.53
2023-04-02T01:14:36.073Z,99162.41
2023-04-02T01:17:18.625Z,99178.56
2023-04-02T01:20:32.681Z,99183.28
2023-04-02T01:23:08.062Z,99176.13
2023-04-02T01:25:45.343Z,99187.53
2023-04-02T01:28:20.571Z,99174.28
2023-04-02T01:30:54.549Z,99182.00
2023-04-02T01:33:26.000Z,99188.09
2023-04-02T01:36:03.786Z,99194.44
2023-04-02T01:38:42.949Z,99202.13
2023-04-02T01:41:18.700Z,99194.19
2023-04-02T01:43:54.075Z,99201.06
2023-04-02T01:46:29.740Z,99200.25
2023-04-02T01:48:58.949Z,99203.19
2023-04-02T01:51:32.486Z,99206.84
2023-04-02T01:54:06.105Z,99203.41
2023-04-02T01:56:35.567Z,99205.03
2023-04-02T01:59:06.029Z,99216.41
2023-04-02T02:01:44.959Z,99211.66
2023-04-02T02:04:14.975Z,99211.91
2023-04-02T02:06:44.488Z,99211.91
2023-04-02T02:09:19.460Z,99224.09
2023-04-02T02:11:47.975Z,99224.09
2023-04-02T02:14:20.694Z,99229.13
2023-04-02T02:16:53.535Z,99225.47
2023-04-02T02:19:28.914Z,99229.13
2023-04-02T02:22:07.992Z,99221.50
2023-04-02T02:24:38.171Z,99233.41
2023-04-02T02:27:56.818Z,99230.19
2023-04-02T02:30:29.603Z,99233.91
2023-04-02T02:33:06.950Z,99232.31
2023-04-02T02:35:43.112Z,99227.00
2023-04-02T02:38:49.624Z,99242.31
2023-04-02T02:41:31.628Z,99238.63
2023-04-02T02:44:07.387Z,99240.16
2023-04-02T02:46:39.902Z,99249.22
2023-04-02T02:49:16.649Z,99255.06
2023-04-02T02:51:49.891Z,99246.03
2023-04-02T02:54:24.244Z,99257.72
2023-04-02T02:56:59.116Z,99257.16
2023-04-02T02:59:31.250Z,99255.06
2023-04-02T03:02:02.193Z,99261.97
2023-04-02T03:04:35.653Z,99262.53
2023-04-02T03:07:09.408Z,99271.50
2023-04-02T03:09:47.139Z,99273.34
2023-04-02T03:12:34.207Z,99266.22
2023-04-02T03:15:12.587Z,99273.34
2023-04-02T03:17:46.134Z,99278.66
2023-04-02T03:20:23.378Z,99285.25
2023-04-02T03:22:59.535Z,99276.56
2023-04-02T03:25:38.124Z,99283.47
2023-04-02T03:28:14.012Z,99285.31
2023-04-02T03:30:48.205Z,99297.50
2023-04-02T03:33:25.940Z,99294.84
2023-04-02T03:36:02.696Z,99299.13
2023-04-02T03:38:34.120Z,99307.06
2023-04-02T03:41:07.705Z,99303.59
2023-04-02T03:43:45.539Z,99315.81
2023-04-02T03:46:25.507Z,99321.91
2023-04-02T03:49:00.318Z,99324.56
2023-04-02T03:51:35.645Z,99320.84
2023-04-02T03:54:05.081Z,99328.25
2023-04-02T03:56:40.022Z,99331.13
2023-04-02T03:59:21.817Z,99324.22
2023-04-02T04:01:59.145Z,99332.19
2023-04-02T04:04:30.790Z,99335.63
2023-04-02T04:07:02.868Z,99334.25
2023-04-02T04:09:34.406Z,99341.41
2023-04-02T04:12:17.222Z,99345.09
2023-04-02T04:14:53.534Z,99348.56
2023-04-02T04:17:34.739Z,99344.31
2023-04-02T04:20:17.353Z,99357.28
2023-04-02T04:22:49.887Z,99354.66
2023-04-02T04:25:29.509Z,99360.19
2023-04-02T04:28:16.643Z,99361.47
2023-04-02T04:30:54.042Z,99365.97
2023-04-02T04:33:29.057Z,99372.06
2023-04-02T04:36:04.317Z,99372.88
2023-04-02T04:38:40.908Z,99368.63
2023-04-02T04:41:17.542Z,99377.38
2023-04-02T04:43:53.325Z,99368.88
2023-04-02T04:46:28.148Z,99385.00
2023-04-02T04:49:04.153Z,99390.28
2023-04-02T04:51:39.108Z,99394.53
2023-04-02T04:54:14.919Z,99405.13
2023-04-02T04:56:49.145Z,99402.25
2023-04-02T04:59:24.864Z,99400.41
2023-04-02T05:02:01.674Z,99411.78
2023-04-02T05:04:36.822Z,99416.03
2023-04-02T05:07:11.710Z,99417.66
2023-04-02T05:09:45.008Z,99413.38
2023-04-02T05:12:26.855Z,99423.75
2023-04-02T05:15:00.521Z,99424.56
2023-04-02T05:17:36.017Z,99431.91
2023-04-02T05:20:16.325Z,99430.00
2023-04-02T05:22:54.735Z,99443.25
2023-04-02T05:25:28.704Z,99438.53
2023-04-02T05:28:08.483Z,99448.53
2023-04-02T05:30:52.682Z,99450.47
2023-04-02T05:33:27.164Z,99454.72
2023-04-02T05:36:02.439Z,99458.97
2023-04-02T05:38:36.606Z,99457.59
2023-04-02T05:41:16.193Z,99466.91
2023-04-02T05:43:49.154Z,99470.38
2023-04-02T05:46:22.418Z,99469.56
2023-04-02T05:48:56.778Z,99466.91
2023-04-02T05:51:32.417Z,99475.91
2023-04-02T05:54:05.077Z,99478.56
2023-04-02T05:56:41.460Z,99487.06
2023-04-02T05:59:17.522Z,99489.69
2023-04-02T06:01:51.036Z,99487.84
2023-04-02T06:04:35.759Z,99500.88
2023-04-02T06:07:10.048Z,99500.06
2023-04-02T06:09:48.287Z,99504.53
2023-04-02T06:12:30.774Z,99510.88
2023-04-02T06:15:00.034Z,99515.13
2023-04-02T06:17:34.190Z,99511.47
2023-04-02T06:20:06.754Z,99521.56
2023-04-02T06:22:39.606Z,99525.25
2023-04-02T06:25:19.485Z,99525.50
2023-04-02T06:27:55.247Z,99527.66
2023-04-02T06:30:29.714Z,99535.63
2023-04-02T06:32:58.686Z,99535.16
2023-04-02T06:35:28.740Z,99536.97
2023-04-02T06:38:05.585Z,99542.03
2023-04-02T06:40:46.218Z,99550.78
2023-04-02T06:43:39.998Z,99557.94
2023-04-02T06:46:40.565Z,99565.06
2023-04-02T06:49:20.243Z,99566.94
2023-04-02T06:51:54.681Z,99577.25
2023-04-02T06:54:23.537Z,99575.41
2023-04-02T06:56:57.780Z,99580.97
2023-04-02T06:59:31.745Z,99586.81
2023-04-02T07:02:06.705Z,99588.44
2023-04-02T07:04:36.163Z,99595.34
2023-04-02T07:07:04.903Z,99602.22
2023-04-02T07:09:37.625Z,99599.03
2023-04-02T07:12:13.239Z,99605.94
2023-04-02T07:14:43.699Z,99611.78
2023-04-02T07:17:17.901Z,99611.78
2023-04-02T07:19:49.582Z,99618.91
2023-04-02T07:22:20.848Z,99617.06
2023-04-02T07:24:56.327Z,99621.03
2023-04-02T07:27:24.661Z,99635.13
2023-04-02T07:29:54.341Z,99635.13
2023-04-02T07:32:22.689Z,99639.41
2023-04-02T07:34:51.037Z,99643.66
2023-04-02T07:37:19.402Z,99649.75
2023-04-02T07:39:47.680Z,99649.75
2023-04-02T07:42:16.028Z,99650.56
2023-04-02T07:44:44.420Z,99666.25
2023-04-02T07:47:14.176Z,99656.66
2023-04-02T07:49:42.519Z,99661.75
2023-04-02T07:52:11.465Z,99665.75
2023-04-02T07:54:39.902Z,99665.19
2023-04-02T07:57:08.310Z,99673.47
2023-04-02T07:59:36.667Z,99676.13
2023-04-02T08:02:06.037Z,99676.91
2023-04-02T08:04:35.917Z,99684.88
2023-04-02T08:07:04.268Z,99687.25
2023-04-02T08:09:32.592Z,99702.13
2023-04-02T08:12:00.963Z,99699.25
2023-04-02T08:14:29.309Z,99709.84
2023-04-02T08:16:57.772Z,99717.53
2023-04-02T08:19:26.492Z,99707.19
2023-04-02T08:21:56.440Z,99722.63
2023-04-02T08:24:24.765Z,99715.47
2023-04-02T08:26:54.501Z,99722.94
2023-04-02T08:29:23.248Z,99725.59
2023-04-02T08:31:51.735Z,99731.69
2023-04-02T08:34:20.065Z,99734.94
2023-04-02T08:36:48.456Z,99743.41
2023-04-02T08:39:18.214Z,99741.34
2023-04-02T08:41:54.220Z,99750.09
2023-04-02T08:44:41.067Z,99736.84
2023-04-02T08:47:10.884Z,99747.19
2023-04-02T08:49:46.437Z,99753.31
2023-04-02T08:52:25.515Z,99767.38
2023-04-02T08:54:56.282Z,99755.72
2023-04-02T08:57:37.326Z,99766.09
2023-04-02T09:00:12.340Z,99770.13
2023-04-02T09:02:46.891Z,99770.91
2023-04-02T09:05:19.877Z,99778.41
2023-04-02T09:07:50.259Z,99772.28
2023-04-02T09:10:21.047Z,99781.38
2023-04-02T09:12:53.983Z,99776.88
2023-04-02T09:15:31.016Z,99782.84
2023-04-02T09:18:07.458Z,99790.06
2023-04-02T09:20:36.430Z,99786.16
2023-04-02T09:23:04.934Z,99797.16
2023-04-02T09:25:34.987Z,99800.13
2023-04-02T09:28:06.494Z,99813.97
2023-04-02T09:30:55.445Z,99798.16
2023-04-02T09:33:44.104Z,99813.38
2023-04-02T09:36:29.476Z,99817.16
2023-04-02T09:39:06.947Z,99828.66
2023-04-02T09:41:38.555Z,99816.75
2023-04-02T09:44:25.381Z,99815.22
2023-04-02T09:47:00.205Z,99820.63
2023-04-02T09:49:31.687Z,99824.63
2023-04-02T09:52:22.755Z,99828.09
2023-04-02T09:55:21.857Z,99827.88
2023-04-02T09:57:53.501Z,99831.38
2023-04-02T10:00:32.003Z,99838.06
2023-04-02T10:03:05.319Z,99840.81
2023-04-02T10:08:21.276Z,99838.25
2023-04-02T10:10:52.601Z,99849.41
2023-04-02T10:13:28.113Z,99853.69
2023-04-02T10:16:02.564Z,99863.84
2023-04-02T10:18:42.515Z,99857.22
2023-04-02T10:21:15.025Z,99859.16
2023-04-02T10:23:43.395Z,99861.31
2023-04-02T10:26:31.741Z,99863.75
2023-04-02T10:29:48.317Z,99872.75
2023-04-02T10:32:21.320Z,99890.84
2023-04-02T10:34:58.635Z,99890.03
2023-04-02T10:38:07.422Z,99904.19
2023-04-02T10:40:38.409Z,99908.84
2023-04-02T10:43:47.638Z,99921.94
2023-04-02T10:46:25.634Z,99912.53
2023-04-02T10:49:06.781Z,99923.63
2023-04-02T10:51:42.988Z,99927.00
2023-04-02T10:54:29.698Z,99929.78
2023-04-02T10:57:06.353Z,99926.25
2023-04-02T10:59:38.907Z,99932.75
2023-04-02T11:02:27.345Z,99940.03
2023-04-02T11:04:58.110Z,99943.94
2023-04-02T11:07:30.954Z,99944.19
2023-04-02T11:10:01.266Z,99947.84
2023-04-02T11:12:42.006Z,99956.06
2023-04-02T11:15:18.012Z,99958.38
2023-04-02T11:17:48.697Z,99966.66
2023-04-02T11:21:01.259Z,99964.94
2023-04-02T11:23:37.667Z,99969.44
2023-04-02T11:26:39.171Z,99974.41
2023-04-02T11:29:43.389Z,99978.22
2023-04-02T11:32:36.473Z,99978.13
2023-04-02T11:35:29.146Z,99991.28
2023-04-02T11:38:00.485Z,99999.22
2023-04-02T11:40:49.779Z,100002.13
2023-04-02T11:43:50.296Z,99998.06
2023-04-02T11:46:48.946Z,100012.13
2023-04-02T11:49:39.723Z,100023.78
2023-04-02T11:52:26.835Z,100027.81
2023-04-02T11:55:24.344Z,100022.75
2023-04-02T11:58:22.877Z,100028.63
2023-04-02T12:01:30.105Z,100034.50
2023-04-02T12:04:44.283Z,100043.84
2023-04-02T12:07:36.125Z,100041.19
2023-04-02T12:10:07.657Z,100047.53
2023-04-02T12:12:39.383Z,100052.25
2023-04-02T12:15:25.989Z,100050.41
2023-04-02T12:17:54.852Z,100063.66
2023-04-02T12:20:28.339Z,100061.25
2023-04-02T12:22:59.668Z,100067.34
2023-04-02T12:25:31.762Z,100079.00
2023-04-02T12:28:14.469Z,100080.00
2023-04-02T12:30:43.354Z,100089.00
2023-04-02T12:33:28.604Z,100081.66
2023-04-02T12:36:00.849Z,100092.81
2023-04-02T12:38:34.095Z,100100.56
2023-04-02T12:41:05.355Z,100105.06
2023-04-02T12:43:36.813Z,100106.88
2023-04-02T12:46:08.307Z,100111.16
2023-04-02T12:48:37.214Z,100114.03
2023-04-02T12:51:06.289Z,100114.81
2023-04-02T12:53:39.945Z,100120.13
2023-04-02T12:56:09.414Z,100120.13
2023-04-02T12:58:44.549Z,100122.78
2023-04-02T13:01:18.506Z,100127.88
2023-04-02T13:04:13.178Z,100139.72
2023-04-02T13:06:47.905Z,100136.88
2023-04-02T13:09:32.947Z,100136.72
2023-04-02T13:12:01.800Z,100140.44
2023-04-02T13:14:32.141Z,100141.13
2023-04-02T13:17:00.751Z,100147.44
2023-04-02T13:19:32.068Z,100153.66
2023-04-02T13:22:25.590Z,100144.31
2023-04-02T13:25:11.622Z,100140.50
2023-04-02T13:27:42.938Z,100157.22
2023-04-02T13:30:25.073Z,100171.72
2023-04-02T13:32:53.749Z,100153.16
2023-04-02T13:35:30.313Z,100163.66
2023-04-02T13:38:02.968Z,100172.06
2023-04-02T13:40:34.127Z,100180.44
2023-04-02T13:43:03.027Z,100170.09
2023-04-02T13:45:35.761Z,100175.59
2023-04-02T13:48:04.880Z,100175.41
2023-04-02T13:50:35.951Z,100176.41
2023-04-02T13:53:10.575Z,100193.13
2023-04-02T13:55:43.771Z,100177.31
2023-04-02T13:58:12.290Z,100178.34
2023-04-02T14:00:41.143Z,100196.53
2023-04-02T14:03:16.483Z,100199.66
2023-04-02T14:05:57.168Z,100200.91
2023-04-02T14:08:36.852Z,100210.09
2023-04-02T14:11:24.887Z,100213.19
2023-04-02T14:14:19.417Z,100220.19
2023-04-02T14:17:04.608Z,100220.88
2023-04-02T14:19:51.050Z,100230.44
2023-04-02T14:22:38.159Z,100235.94
2023-04-02T14:25:19.454Z,100238.00
2023-04-02T14:27:57.649Z,100228.47
2023-04-02T14:30:36.972Z,100236.84
2023-04-02T14:33:19.328Z,100244.78
2023-04-02T14:35:51.705Z,100255.38
2023-04-02T14:38:26.619Z,100248.69
2023-04-02T14:41:01.196Z,100260.47
2023-04-02T14:43:41.090Z,100248.03
2023-04-02T14:46:11.566Z,100255.81
2023-04-02T14:48:57.395Z,100251.94
2023-04-02T14:51:34.509Z,100263.69
2023-04-02T14:54:10.829Z,100257.78
2023-04-02T14:56:46.413Z,100273.69
2023-04-02T14:59:32.284Z,100269.44
2023-04-02T15:02:05.103Z,100275.16
2023-04-02T15:04:39.413Z,100285.34
2023-04-02T15:07:15.587Z,100290.88
2023-04-02T15:09:53.499Z,100287.63
2023-04-02T15:12:27.088Z,100291.88
2023-04-02T15:15:07.515Z,100299.81
2023-04-02T15:17:37.391Z,100305.13
2023-04-02T15:20:16.007Z,100306.53
2023-04-02T15:22:58.455Z,100315.72
2023-04-02T15:25:34.959Z,100314.78
2023-04-02T15:28:16.988Z,100309.09
2023-04-02T15:30:49.021Z,100320.50
2023-04-02T15:33:43.438Z,100316.44
2023-04-02T15:36:34.627Z,100327.03
2023-04-02T15:39:19.038Z,100320.72
2023-04-02T15:42:02.034Z,100326.84
2023-04-02T15:44:30.528Z,100335.16
2023-04-02T15:47:11.152Z,100332.28
2023-04-02T15:49:44.231Z,100336.53
2023-04-02T15:52:20.980Z,100343.22
2023-04-02T15:55:03.439Z,100334.34
2023-04-02T15:57:58.028Z,100356.91
2023-04-02T16:00:28.217Z,100351.47
2023-04-02T16:03:26.014Z,100351.91
2023-04-02T16:06:17.080Z,100359.69
2023-04-02T16:09:02.206Z,100365.03
2023-04-02T16:11:30.724Z,100358.56
2023-04-02T16:14:12.268Z,100368.56
2023-04-02T16:16:43.597Z,100368.78
2023-04-02T16:19:21.020Z,100378.75
2023-04-02T16:21:58.720Z,100366.63
2023-04-02T16:24:27.123Z,100382.97
2023-04-02T16:27:01.622Z,100419.00
2023-04-02T16:29:54.619Z,100395.84
2023-04-02T16:32:44.817Z,100418.03
2023-04-02T16:38:03.667Z,100417.88
2023-04-02T16:40:39.443Z,100427.66
2023-04-02T16:43:21.414Z,100431.13
2023-04-02T16:45:58.903Z,100435.78
2023-04-02T16:48:38.313Z,100430.53
2023-04-02T16:51:21.485Z,100439.50
2023-04-02T16:54:02.032Z,100445.81
2023-04-02T16:56:47.356Z,100454.34
2023-04-02T16:59:26.452Z,100464.34
2023-04-02T17:02:01.302Z,100461.06
2023-04-02T17:04:54.380Z,100458.28
2023-04-02T17:07:49.660Z,100476.94
2023-04-02T17:10:32.180Z,100479.16
2023-04-02T17:13:15.290Z,100495.47
2023-04-02T17:15:47.236Z,100497.50
2023-04-02T17:18:20.029Z,100505.44
2023-04-02T17:20:48.891Z,100513.16
2023-04-02T17:23:20.558Z,100508.09
2023-04-02T17:25:54.495Z,100515.22
2023-04-02T17:28:29.605Z,100531.09
2023-04-02T17:31:00.681Z,100519.34
2023-04-02T17:33:29.092Z,100541.47
2023-04-02T17:36:22.453Z,100547.41
2023-04-02T17:39:06.125Z,100543.34
2023-04-02T17:41:41.172Z,100557.59
2023-04-02T17:44:30.651Z,100560.25
2023-04-02T17:47:06.713Z,100571.66
2023-04-02T17:49:41.959Z,100567.78
2023-04-02T17:52:20.036Z,100575.94
2023-04-02T17:55:01.423Z,100581.41
2023-04-02T17:57:44.535Z,100586.69
2023-04-02T18:00:39.948Z,100583.22
2023-04-02T18:03:31.907Z,100606.41
2023-04-02T18:06:06.611Z,100602.72
2023-04-02T18:08:47.068Z,100609.44
2023-04-02T18:11:29.708Z,100616.97
2023-04-02T18:14:02.215Z,100622.25
2023-04-02T18:16:45.369Z,100625.94
2023-04-02T18:19:20.369Z,100631.22
2023-04-02T18:21:55.896Z,100637.50
2023-04-02T18:24:57.050Z,100643.22
2023-04-02T18:27:43.731Z,100644.66
2023-04-02T18:30:20.031Z,100661.72
2023-04-02T18:33:20.507Z,100679.16
2023-04-02T18:36:00.707Z,100671.63
2023-04-02T18:38:41.819Z,100676.50
2023-04-02T18:41:27.029Z,100672.66
2023-04-02T18:44:09.831Z,100691.75
2023-04-02T18:46:46.388Z,100690.94
2023-04-02T18:49:33.762Z,100711.28
2023-04-02T18:52:05.230Z,100715.94
2023-04-02T18:54:35.925Z,100721.41
2023-04-02T18:57:12.987Z,100724.66
2023-04-02T18:59:48.980Z,100726.47
2023-04-02T19:02:34.704Z,100731.34
2023-04-02T19:05:07.176Z,100737.03
2023-04-02T19:07:40.176Z,100741.28
2023-04-02T19:10:25.568Z,100745.72
2023-04-02T19:12:53.941Z,100760.75
2023-04-02T19:15:32.142Z,100757.47
2023-04-02T19:18:09.953Z,100768.44
2023-04-02T19:20:45.690Z,100776.78
2023-04-02T19:23:33.237Z,100783.84
2023-04-02T19:26:06.408Z,100784.03
2023-04-02T19:28:43.748Z,100777.28
2023-04-02T19:31:27.694Z,100792.72
2023-04-02T19:34:01.581Z,100799.22
2023-04-02T19:36:44.482Z,100797.59
2023-04-02T19:40:05.113Z,100796.75
2023-04-02T19:42:46.028Z,100807.47
2023-04-02T19:45:36.340Z,100820.88
2023-04-02T19:48:14.521Z,100823.50
2023-04-02T19:50:43.415Z,100821.06
2023-04-02T19:53:11.996Z,100830.41
2023-04-02T19:55:41.317Z,100826.53
2023-04-02T19:58:20.200Z,100836.94
2023-04-02T20:00:48.798Z,100831.66
2023-04-02T20:03:18.617Z,100838.75
2023-04-02T20:05:47.195Z,100838.97
2023-04-02T20:08:15.717Z,100846.03
2023-04-02T20:10:44.622Z,100841.78
2023-04-02T20:13:13.150Z,100850.50
2023-04-02T20:15:42.204Z,100854.59
2023-04-02T20:18:10.991Z,100860.69
2023-04-02T20:20:40.776Z,100856.44
2023-04-02T20:23:09.157Z,100868.59
2023-04-02T20:25:37.538Z,100865.97
2023-04-02T20:28:07.498Z,100870.63
2023-04-02T20:30:36.319Z,100863.97
2023-04-02T20:33:05.134Z,100867.84
2023-04-02T20:35:34.647Z,100869.47
2023-04-02T20:38:06.694Z,100891.38
2023-04-02T20:40:35.379Z,100874.31
2023-04-02T20:43:04.471Z,100884.50
2023-04-02T20:45:32.954Z,100882.66
2023-04-02T20:48:01.522Z,100882.88
2023-04-02T20:50:30.609Z,100897.91
2023-04-02T20:53:01.087Z,100897.91
2023-04-02T20:55:30.817Z,100899.13
2023-04-02T20:57:59.169Z,100897.88
2023-04-02T21:00:27.516Z,100907.59
2023-04-02T21:02:55.976Z,100910.66
2023-04-02T21:05:24.358Z,100909.63
2023-04-02T21:07:52.758Z,100921.22
2023-04-02T21:10:21.336Z,100918.13
2023-04-02T21:12:51.091Z,100916.06
2023-04-02T21:15:19.522Z,100925.19
2023-04-02T21:17:47.884Z,100923.94
2023-04-02T21:20:16.503Z,100929.59
2023-04-02T21:22:44.806Z,100933.66
2023-04-02T21:25:13.149Z,100931.00
2023-04-02T21:27:41.823Z,100931.84
2023-04-02T21:30:13.247Z,100939.56
2023-04-02T21:32:44.088Z,100933.66
2023-04-02T21:35:12.622Z,100929.59
2023-04-02T21:37:40.976Z,100935.69
2023-04-02T21:40:10.752Z,100928.16
2023-04-02T21:42:39.201Z,100936.88
2023-04-02T21:45:09.188Z,100933.63
2023-04-02T21:47:39.081Z,100929.72
2023-04-02T21:50:10.369Z,100940.53
2023-04-02T21:52:38.811Z,100943.16
2023-04-02T21:55:08.155Z,100931.16
2023-04-02T21:57:36.698Z,100943.53
2023-04-02T22:00:08.952Z,100940.91
2023-04-02T22:02:38.872Z,100944.34
2023-04-02T22:05:08.841Z,100944.56
2023-04-02T22:07:37.299Z,100948.16
2023-04-02T22:10:06.456Z,100942.91
2023-04-02T22:12:34.910Z,100940.66
2023-04-02T22:15:03.908Z,100946.31
2023-04-02T22:17:32.276Z,100957.84
2023-04-02T22:20:04.991Z,100950.34
2023-04-02T22:22:33.407Z,100948.03
2023-04-02T22:25:03.046Z,100949.03
2023-04-02T22:27:31.382Z,100937.88
2023-04-02T22:29:59.796Z,100946.38
2023-04-02T22:32:28.235Z,100943.38
2023-04-02T22:34:56.736Z,100947.03
2023-04-02T22:37:26.438Z,100956.78
2023-04-02T22:39:55.221Z,100946.22
2023-04-02T22:42:23.645Z,100953.31
2023-04-02T22:44:52.048Z,100953.94
2023-04-02T22:47:20.420Z,100953.13
2023-04-02T22:49:48.924Z,100950.34
2023-04-02T22:52:17.322Z,100955.63
2023-04-02T22:54:47.554Z,100939.94
2023-04-02T22:57:16.818Z,100944.88
2023-04-02T22:59:45.275Z,100957.03
2023-04-02T23:02:13.667Z,100955.22
2023-04-02T23:04:42.236Z,100963.13
2023-04-02T23:07:10.747Z,100946.50
2023-04-02T23:09:39.100Z,100945.88
2023-04-02T23:12:08.959Z,100947.72
2023-04-02T23:14:37.314Z,100948.66
2023-04-02T23:17:05.710Z,100952.97
2023-04-02T23:19:34.138Z,100950.69
2023-04-02T23:22:02.606Z,100956.78
2023-04-02T23:24:30.989Z,100962.22
2023-04-02T23:26:59.452Z,100958.31
2023-04-02T23:29:29.334Z,100959.34
2023-04-02T23:31:57.709Z,100964.63
2023-04-02T23:34:26.630Z,100956.91
2023-04-02T23:36:54.987Z,100962.53
2023-04-02T23:39:23.336Z,100959.25
2023-04-02T23:41:51.659Z,100955.22
2023-04-02T23:44:20.049Z,100962.47
2023-04-02T23:46:49.859Z,100965.47
2023-04-02T23:49:18.712Z,100966.50
2023-04-02T23:51:47.263Z,100961.78
2023-04-02T23:54:16.485Z,100964.44
2023-04-02T23:56:44.861Z,100963.97
2023-04-02T23:59:13.250Z,100950.34
